sensor_id;sensor_type;location;lat;lon;timestamp;temperature;humidity
29551;DHT22;16488;52.396;10.696;2023-02-08T00:01:24;-4.00;99.90
29551;DHT22;16488;52.396;10.696;2023-02-08T00:03:50;-3.90;99.90
29551;DHT22;16488;52.396;10.696;2023-02-08T00:06:16;-3.90;99.90
29551;DHT22;16488;52.396;10.696;2023-02-08T00:08:41;-3.80;99.90
29551;DHT22;16488;52.396;10.696;2023-02-08T00:11:07;-3.90;99.90
29551;DHT22;16488;52.396;10.696;2023-02-08T00:13:35;-4.00;99.90
29551;DHT22;16488;52.396;10.696;2023-02-08T00:16:01;-4.20;99.90
29551;DHT22;16488;52.396;10.696;2023-02-08T00:18:27;-4.30;99.90
29551;DHT22;16488;52.396;10.696;2023-02-08T00:20:53;-4.40;99.90
29551;DHT22;16488;52.396;10.696;2023-02-08T00:23:20;-4.40;99.90
29551;DHT22;16488;52.396;10.696;2023-02-08T00:25:45;-4.50;99.90
29551;DHT22;16488;52.396;10.696;2023-02-08T00:28:13;-4.60;99.90
29551;DHT22;16488;52.396;10.696;2023-02-08T00:30:39;-4.60;99.90
29551;DHT22;16488;52.396;10.696;2023-02-08T00:33:05;-4.60;99.90
29551;DHT22;16488;52.396;10.696;2023-02-08T00:35:31;-4.60;99.90
29551;DHT22;16488;52.396;10.696;2023-02-08T00:37:57;-4.60;99.90
29551;DHT22;16488;52.396;10.696;2023-02-08T00:40:23;-4.60;99.90
29551;DHT22;16488;52.396;10.696;2023-02-08T00:42:49;-4.60;99.90
29551;DHT22;16488;52.396;10.696;2023-02-08T00:45:15;-4.70;99.90
29551;DHT22;16488;52.396;10.696;2023-02-08T00:47:40;-4.60;99.90
29551;DHT22;16488;52.396;10.696;2023-02-08T00:50:06;-4.70;99.90
29551;DHT22;16488;52.396;10.696;2023-02-08T00:52:32;-4.70;99.90
29551;DHT22;16488;52.396;10.696;2023-02-08T00:54:58;-4.70;99.90
29551;DHT22;16488;52.396;10.696;2023-02-08T00:57:23;-4.70;99.90
29551;DHT22;16488;52.396;10.696;2023-02-08T00:59:49;-4.80;99.90
29551;DHT22;16488;52.396;10.696;2023-02-08T01:02:15;-4.80;99.90
29551;DHT22;16488;52.396;10.696;2023-02-08T01:04:41;-4.80;99.90
29551;DHT22;16488;52.396;10.696;2023-02-08T01:07:06;-4.80;99.90
29551;DHT22;16488;52.396;10.696;2023-02-08T01:09:33;-4.80;99.90
29551;DHT22;16488;52.396;10.696;2023-02-08T01:11:59;-4.80;99.90
29551;DHT22;16488;52.396;10.696;2023-02-08T01:14:24;-4.70;99.90
29551;DHT22;16488;52.396;10.696;2023-02-08T01:16:50;-4.60;99.90
29551;DHT22;16488;52.396;10.696;2023-02-08T01:19:16;-4.50;99.90
29551;DHT22;16488;52.396;10.696;2023-02-08T01:21:42;-4.40;99.90
29551;DHT22;16488;52.396;10.696;2023-02-08T01:24:09;-4.40;99.90
29551;DHT22;16488;52.396;10.696;2023-02-08T01:26:35;-4.30;99.90
29551;DHT22;16488;52.396;10.696;2023-02-08T01:29:00;-4.30;99.90
29551;DHT22;16488;52.396;10.696;2023-02-08T01:31:31;-4.30;99.90
29551;DHT22;16488;52.396;10.696;2023-02-08T01:33:58;-4.30;99.90
29551;DHT22;16488;52.396;10.696;2023-02-08T01:36:26;-4.30;99.90
29551;DHT22;16488;52.396;10.696;2023-02-08T01:38:52;-4.30;99.90
29551;DHT22;16488;52.396;10.696;2023-02-08T01:41:23;-4.30;99.90
29551;DHT22;16488;52.396;10.696;2023-02-08T01:44:05;-4.40;99.90
29551;DHT22;16488;52.396;10.696;2023-02-08T01:46:36;-4.30;99.90
29551;DHT22;16488;52.396;10.696;2023-02-08T01:49:28;-4.40;99.90
29551;DHT22;16488;52.396;10.696;2023-02-08T01:51:58;-4.40;99.90
29551;DHT22;16488;52.396;10.696;2023-02-08T01:54:27;-4.40;99.90
29551;DHT22;16488;52.396;10.696;2023-02-08T01:56:54;-4.30;99.90
29551;DHT22;16488;52.396;10.696;2023-02-08T01:59:23;-4.40;99.90
29551;DHT22;16488;52.396;10.696;2023-02-08T02:01:52;-4.30;99.90
29551;DHT22;16488;52.396;10.696;2023-02-08T02:04:18;-4.30;99.90
29551;DHT22;16488;52.396;10.696;2023-02-08T02:06:51;-4.40;99.90
29551;DHT22;16488;52.396;10.696;2023-02-08T02:11:52;-4.30;99.90
29551;DHT22;16488;52.396;10.696;2023-02-08T02:14:18;-4.40;99.90
29551;DHT22;16488;52.396;10.696;2023-02-08T02:16:44;-4.40;99.90
29551;DHT22;16488;52.396;10.696;2023-02-08T02:19:21;-4.30;99.90
29551;DHT22;16488;52.396;10.696;2023-02-08T02:22:02;-4.40;99.90
29551;DHT22;16488;52.396;10.696;2023-02-08T02:24:41;-4.30;99.90
29551;DHT22;16488;52.396;10.696;2023-02-08T02:33:40;-4.60;99.90
29551;DHT22;16488;52.396;10.696;2023-02-08T02:36:17;-4.60;99.90
29551;DHT22;16488;52.396;10.696;2023-02-08T02:44:59;-5.00;99.90
29551;DHT22;16488;52.396;10.696;2023-02-08T02:50:22;-4.90;99.90
29551;DHT22;16488;52.396;10.696;2023-02-08T02:55:28;-4.80;99.90
29551;DHT22;16488;52.396;10.696;2023-02-08T02:57:59;-4.70;99.90
29551;DHT22;16488;52.396;10.696;2023-02-08T03:00:28;-4.70;99.90
29551;DHT22;16488;52.396;10.696;2023-02-08T03:02:55;-4.60;99.90
29551;DHT22;16488;52.396;10.696;2023-02-08T03:05:23;-4.60;99.90
29551;DHT22;16488;52.396;10.696;2023-02-08T03:13:10;-4.50;99.90
29551;DHT22;16488;52.396;10.696;2023-02-08T03:18:40;-4.60;99.90
29551;DHT22;16488;52.396;10.696;2023-02-08T03:24:03;-4.50;99.90
29551;DHT22;16488;52.396;10.696;2023-02-08T03:29:25;-4.70;99.90
29551;DHT22;16488;52.396;10.696;2023-02-08T03:34:54;-4.60;99.90
29551;DHT22;16488;52.396;10.696;2023-02-08T03:37:43;-4.60;99.90
29551;DHT22;16488;52.396;10.696;2023-02-08T03:42:58;-4.70;99.90
29551;DHT22;16488;52.396;10.696;2023-02-08T03:45:37;-4.70;99.90
29551;DHT22;16488;52.396;10.696;2023-02-08T03:48:07;-4.70;99.90
29551;DHT22;16488;52.396;10.696;2023-02-08T03:50:36;-4.80;99.90
29551;DHT22;16488;52.396;10.696;2023-02-08T03:53:03;-4.70;99.90
29551;DHT22;16488;52.396;10.696;2023-02-08T03:55:32;-4.70;99.90
29551;DHT22;16488;52.396;10.696;2023-02-08T03:58:09;-4.70;99.90
29551;DHT22;16488;52.396;10.696;2023-02-08T04:00:40;-4.70;99.90
29551;DHT22;16488;52.396;10.696;2023-02-08T04:03:12;-4.70;99.90
29551;DHT22;16488;52.396;10.696;2023-02-08T04:05:40;-4.70;99.90
29551;DHT22;16488;52.396;10.696;2023-02-08T04:08:06;-4.70;99.90
29551;DHT22;16488;52.396;10.696;2023-02-08T04:10:31;-4.80;99.90
29551;DHT22;16488;52.396;10.696;2023-02-08T04:12:57;-4.80;99.90
29551;DHT22;16488;52.396;10.696;2023-02-08T04:15:22;-4.80;99.90
29551;DHT22;16488;52.396;10.696;2023-02-08T04:17:48;-4.80;99.90
29551;DHT22;16488;52.396;10.696;2023-02-08T04:20:14;-4.80;99.90
29551;DHT22;16488;52.396;10.696;2023-02-08T04:22:39;-4.80;99.90
29551;DHT22;16488;52.396;10.696;2023-02-08T04:25:05;-4.80;99.90
29551;DHT22;16488;52.396;10.696;2023-02-08T04:27:31;-5.00;99.90
29551;DHT22;16488;52.396;10.696;2023-02-08T04:29:56;-5.00;99.90
29551;DHT22;16488;52.396;10.696;2023-02-08T04:32:22;-5.00;99.90
29551;DHT22;16488;52.396;10.696;2023-02-08T04:34:47;-4.90;99.90
29551;DHT22;16488;52.396;10.696;2023-02-08T04:37:13;-4.90;99.90
29551;DHT22;16488;52.396;10.696;2023-02-08T04:39:39;-4.90;99.90
29551;DHT22;16488;52.396;10.696;2023-02-08T04:42:04;-4.80;99.90
29551;DHT22;16488;52.396;10.696;2023-02-08T04:44:30;-4.80;99.90
29551;DHT22;16488;52.396;10.696;2023-02-08T04:46:57;-4.90;99.90
29551;DHT22;16488;52.396;10.696;2023-02-08T04:49:23;-4.80;99.90
29551;DHT22;16488;52.396;10.696;2023-02-08T04:51:49;-4.90;99.90
29551;DHT22;16488;52.396;10.696;2023-02-08T04:54:14;-4.90;99.90
29551;DHT22;16488;52.396;10.696;2023-02-08T04:56:40;-4.90;99.90
29551;DHT22;16488;52.396;10.696;2023-02-08T04:59:05;-4.90;99.90
29551;DHT22;16488;52.396;10.696;2023-02-08T05:01:31;-4.90;99.90
29551;DHT22;16488;52.396;10.696;2023-02-08T05:03:56;-5.00;99.90
29551;DHT22;16488;52.396;10.696;2023-02-08T05:06:22;-5.00;99.90
29551;DHT22;16488;52.396;10.696;2023-02-08T05:08:47;-4.90;99.90
29551;DHT22;16488;52.396;10.696;2023-02-08T05:11:19;-5.00;99.90
29551;DHT22;16488;52.396;10.696;2023-02-08T05:13:44;-5.00;99.90
29551;DHT22;16488;52.396;10.696;2023-02-08T05:16:10;-5.00;99.90
29551;DHT22;16488;52.396;10.696;2023-02-08T05:18:35;-5.00;99.90
29551;DHT22;16488;52.396;10.696;2023-02-08T05:21:01;-5.00;99.90
29551;DHT22;16488;52.396;10.696;2023-02-08T05:23:28;-5.00;99.90
29551;DHT22;16488;52.396;10.696;2023-02-08T05:25:54;-5.00;99.90
29551;DHT22;16488;52.396;10.696;2023-02-08T05:28:20;-5.00;99.90
29551;DHT22;16488;52.396;10.696;2023-02-08T05:30:46;-5.00;99.90
29551;DHT22;16488;52.396;10.696;2023-02-08T05:33:11;-5.00;99.90
29551;DHT22;16488;52.396;10.696;2023-02-08T05:35:37;-4.90;99.90
29551;DHT22;16488;52.396;10.696;2023-02-08T05:38:04;-4.90;99.90
29551;DHT22;16488;52.396;10.696;2023-02-08T05:40:31;-4.90;99.90
29551;DHT22;16488;52.396;10.696;2023-02-08T05:42:56;-4.80;99.90
29551;DHT22;16488;52.396;10.696;2023-02-08T05:45:22;-4.80;99.90
29551;DHT22;16488;52.396;10.696;2023-02-08T05:47:47;-4.80;99.90
29551;DHT22;16488;52.396;10.696;2023-02-08T05:50:13;-4.70;99.90
29551;DHT22;16488;52.396;10.696;2023-02-08T05:52:39;-4.80;99.90
29551;DHT22;16488;52.396;10.696;2023-02-08T05:55:05;-4.70;99.90
29551;DHT22;16488;52.396;10.696;2023-02-08T05:57:31;-4.70;99.90
29551;DHT22;16488;52.396;10.696;2023-02-08T05:59:57;-4.80;99.90
29551;DHT22;16488;52.396;10.696;2023-02-08T06:02:23;-4.90;99.90
29551;DHT22;16488;52.396;10.696;2023-02-08T06:04:49;-4.80;99.90
29551;DHT22;16488;52.396;10.696;2023-02-08T06:07:14;-4.90;99.90
29551;DHT22;16488;52.396;10.696;2023-02-08T06:09:40;-4.90;99.90
29551;DHT22;16488;52.396;10.696;2023-02-08T06:12:06;-4.90;99.90
29551;DHT22;16488;52.396;10.696;2023-02-08T06:14:31;-4.90;99.90
29551;DHT22;16488;52.396;10.696;2023-02-08T06:16:57;-4.90;99.90
29551;DHT22;16488;52.396;10.696;2023-02-08T06:19:23;-4.80;99.90
29551;DHT22;16488;52.396;10.696;2023-02-08T06:21:49;-4.80;99.90
29551;DHT22;16488;52.396;10.696;2023-02-08T06:24:14;-4.80;99.90
29551;DHT22;16488;52.396;10.696;2023-02-08T06:26:41;-4.80;99.90
29551;DHT22;16488;52.396;10.696;2023-02-08T06:29:07;-4.80;99.90
29551;DHT22;16488;52.396;10.696;2023-02-08T06:31:32;-4.80;99.90
29551;DHT22;16488;52.396;10.696;2023-02-08T06:33:58;-4.90;99.90
29551;DHT22;16488;52.396;10.696;2023-02-08T06:36:24;-4.80;99.90
29551;DHT22;16488;52.396;10.696;2023-02-08T06:38:49;-4.80;99.90
29551;DHT22;16488;52.396;10.696;2023-02-08T06:41:15;-4.90;99.90
29551;DHT22;16488;52.396;10.696;2023-02-08T06:43:42;-4.80;99.90
29551;DHT22;16488;52.396;10.696;2023-02-08T06:46:08;-4.90;99.90
29551;DHT22;16488;52.396;10.696;2023-02-08T06:48:33;-4.90;99.90
29551;DHT22;16488;52.396;10.696;2023-02-08T06:51:00;-4.90;99.90
29551;DHT22;16488;52.396;10.696;2023-02-08T06:53:25;-4.90;99.90
29551;DHT22;16488;52.396;10.696;2023-02-08T06:55:51;-5.00;99.90
29551;DHT22;16488;52.396;10.696;2023-02-08T06:58:17;-4.90;99.90
29551;DHT22;16488;52.396;10.696;2023-02-08T07:00:43;-4.90;99.90
29551;DHT22;16488;52.396;10.696;2023-02-08T07:03:12;-4.90;99.90
29551;DHT22;16488;52.396;10.696;2023-02-08T07:05:39;-4.90;99.90
29551;DHT22;16488;52.396;10.696;2023-02-08T07:08:05;-4.80;99.90
29551;DHT22;16488;52.396;10.696;2023-02-08T07:10:31;-4.90;99.90
29551;DHT22;16488;52.396;10.696;2023-02-08T07:12:57;-4.80;99.90
29551;DHT22;16488;52.396;10.696;2023-02-08T07:15:23;-4.80;99.90
29551;DHT22;16488;52.396;10.696;2023-02-08T07:17:48;-4.80;99.90
29551;DHT22;16488;52.396;10.696;2023-02-08T07:20:14;-4.80;99.90
29551;DHT22;16488;52.396;10.696;2023-02-08T07:22:40;-4.70;99.90
29551;DHT22;16488;52.396;10.696;2023-02-08T07:25:07;-4.70;99.90
29551;DHT22;16488;52.396;10.696;2023-02-08T07:27:33;-4.70;99.90
29551;DHT22;16488;52.396;10.696;2023-02-08T07:29:58;-4.60;99.90
29551;DHT22;16488;52.396;10.696;2023-02-08T07:32:24;-4.60;99.90
29551;DHT22;16488;52.396;10.696;2023-02-08T07:34:50;-4.50;99.90
29551;DHT22;16488;52.396;10.696;2023-02-08T07:37:16;-4.50;99.90
29551;DHT22;16488;52.396;10.696;2023-02-08T07:39:41;-4.50;99.90
29551;DHT22;16488;52.396;10.696;2023-02-08T07:42:08;-4.50;99.90
29551;DHT22;16488;52.396;10.696;2023-02-08T07:44:36;-4.50;99.90
29551;DHT22;16488;52.396;10.696;2023-02-08T07:47:02;-4.40;99.90
29551;DHT22;16488;52.396;10.696;2023-02-08T07:49:28;-4.40;99.90
29551;DHT22;16488;52.396;10.696;2023-02-08T07:51:53;-4.30;99.90
29551;DHT22;16488;52.396;10.696;2023-02-08T07:54:19;-4.20;99.90
29551;DHT22;16488;52.396;10.696;2023-02-08T07:56:44;-4.20;99.90
29551;DHT22;16488;52.396;10.696;2023-02-08T07:59:10;-4.20;99.90
29551;DHT22;16488;52.396;10.696;2023-02-08T08:01:35;-4.10;99.90
29551;DHT22;16488;52.396;10.696;2023-02-08T08:04:01;-4.10;99.90
29551;DHT22;16488;52.396;10.696;2023-02-08T08:06:27;-4.00;99.90
29551;DHT22;16488;52.396;10.696;2023-02-08T08:08:52;-3.90;99.90
29551;DHT22;16488;52.396;10.696;2023-02-08T08:11:18;-3.90;99.90
29551;DHT22;16488;52.396;10.696;2023-02-08T08:13:44;-3.80;99.90
29551;DHT22;16488;52.396;10.696;2023-02-08T08:16:09;-3.70;99.90
29551;DHT22;16488;52.396;10.696;2023-02-08T08:18:35;-3.60;99.90
29551;DHT22;16488;52.396;10.696;2023-02-08T08:21:01;-3.50;99.90
29551;DHT22;16488;52.396;10.696;2023-02-08T08:23:27;-3.40;99.90
29551;DHT22;16488;52.396;10.696;2023-02-08T08:25:54;-3.30;99.90
29551;DHT22;16488;52.396;10.696;2023-02-08T08:28:19;-3.20;99.90
29551;DHT22;16488;52.396;10.696;2023-02-08T08:30:45;-3.10;99.90
29551;DHT22;16488;52.396;10.696;2023-02-08T08:33:11;-3.00;99.90
29551;DHT22;16488;52.396;10.696;2023-02-08T08:35:39;-2.80;99.90
29551;DHT22;16488;52.396;10.696;2023-02-08T08:38:05;-2.70;99.90
29551;DHT22;16488;52.396;10.696;2023-02-08T08:40:30;-2.50;99.90
29551;DHT22;16488;52.396;10.696;2023-02-08T08:42:56;-2.40;99.90
29551;DHT22;16488;52.396;10.696;2023-02-08T08:45:22;-2.30;99.90
29551;DHT22;16488;52.396;10.696;2023-02-08T08:47:47;-2.10;99.90
29551;DHT22;16488;52.396;10.696;2023-02-08T08:50:13;-1.90;99.90
29551;DHT22;16488;52.396;10.696;2023-02-08T08:52:39;-1.80;99.90
29551;DHT22;16488;52.396;10.696;2023-02-08T08:55:05;-1.70;99.90
29551;DHT22;16488;52.396;10.696;2023-02-08T08:57:31;-1.50;99.90
29551;DHT22;16488;52.396;10.696;2023-02-08T08:59:57;-1.30;99.90
29551;DHT22;16488;52.396;10.696;2023-02-08T09:02:22;-1.00;99.90
29551;DHT22;16488;52.396;10.696;2023-02-08T09:04:48;-0.80;99.90
29551;DHT22;16488;52.396;10.696;2023-02-08T09:07:13;-0.70;99.90
29551;DHT22;16488;52.396;10.696;2023-02-08T09:09:40;-0.60;99.90
29551;DHT22;16488;52.396;10.696;2023-02-08T09:12:06;-0.40;99.90
29551;DHT22;16488;52.396;10.696;2023-02-08T09:14:31;-0.30;99.90
29551;DHT22;16488;52.396;10.696;2023-02-08T09:16:57;-0.10;99.90
29551;DHT22;16488;52.396;10.696;2023-02-08T09:19:24;0.10;99.90
29551;DHT22;16488;52.396;10.696;2023-02-08T09:21:50;0.30;99.90
29551;DHT22;16488;52.396;10.696;2023-02-08T09:24:15;0.40;99.90
29551;DHT22;16488;52.396;10.696;2023-02-08T09:26:41;0.50;99.90
29551;DHT22;16488;52.396;10.696;2023-02-08T09:29:07;0.60;99.90
29551;DHT22;16488;52.396;10.696;2023-02-08T09:31:35;0.70;99.90
29551;DHT22;16488;52.396;10.696;2023-02-08T09:34:04;0.80;99.90
29551;DHT22;16488;52.396;10.696;2023-02-08T09:36:35;1.00;99.90
29551;DHT22;16488;52.396;10.696;2023-02-08T09:39:08;1.10;99.90
29551;DHT22;16488;52.396;10.696;2023-02-08T09:44:33;1.30;99.90
29551;DHT22;16488;52.396;10.696;2023-02-08T09:47:08;1.40;99.90
29551;DHT22;16488;52.396;10.696;2023-02-08T09:52:48;1.80;99.90
29551;DHT22;16488;52.396;10.696;2023-02-08T09:55:24;2.00;99.90
29551;DHT22;16488;52.396;10.696;2023-02-08T09:57:52;2.20;99.90
29551;DHT22;16488;52.396;10.696;2023-02-08T10:00:34;2.40;99.90
29551;DHT22;16488;52.396;10.696;2023-02-08T10:03:01;2.60;99.90
29551;DHT22;16488;52.396;10.696;2023-02-08T10:05:29;2.60;99.40
29551;DHT22;16488;52.396;10.696;2023-02-08T10:07:55;2.90;98.50
29551;DHT22;16488;52.396;10.696;2023-02-08T10:10:51;3.50;97.00
29551;DHT22;16488;52.396;10.696;2023-02-08T10:13:43;4.50;95.90
29551;DHT22;16488;52.396;10.696;2023-02-08T10:16:46;5.40;93.30
29551;DHT22;16488;52.396;10.696;2023-02-08T10:19:52;6.10;90.20
29551;DHT22;16488;52.396;10.696;2023-02-08T10:34:08;7.90;73.50
29551;DHT22;16488;52.396;10.696;2023-02-08T10:36:38;7.80;73.50
29551;DHT22;16488;52.396;10.696;2023-02-08T10:39:18;7.70;70.00
29551;DHT22;16488;52.396;10.696;2023-02-08T10:41:45;7.40;74.80
29551;DHT22;16488;52.396;10.696;2023-02-08T10:44:25;7.30;73.00
29551;DHT22;16488;52.396;10.696;2023-02-08T10:49:59;7.00;76.30
29551;DHT22;16488;52.396;10.696;2023-02-08T10:52:25;6.70;77.20
29551;DHT22;16488;52.396;10.696;2023-02-08T10:54:51;6.40;78.20
29551;DHT22;16488;52.396;10.696;2023-02-08T10:57:23;5.90;77.10
29551;DHT22;16488;52.396;10.696;2023-02-08T10:59:57;5.50;77.40
29551;DHT22;16488;52.396;10.696;2023-02-08T11:02:40;5.80;77.30
29551;DHT22;16488;52.396;10.696;2023-02-08T11:05:19;5.60;77.90
29551;DHT22;16488;52.396;10.696;2023-02-08T11:07:45;5.40;78.20
29551;DHT22;16488;52.396;10.696;2023-02-08T11:15:32;6.50;77.20
29551;DHT22;16488;52.396;10.696;2023-02-08T11:18:01;6.40;79.10
29551;DHT22;16488;52.396;10.696;2023-02-08T11:20:32;6.30;79.20
29551;DHT22;16488;52.396;10.696;2023-02-08T11:23:02;5.60;78.80
29551;DHT22;16488;52.396;10.696;2023-02-08T11:25:34;5.40;80.10
29551;DHT22;16488;52.396;10.696;2023-02-08T11:28:00;6.10;80.80
29551;DHT22;16488;52.396;10.696;2023-02-08T11:30:26;6.30;78.70
29551;DHT22;16488;52.396;10.696;2023-02-08T11:33:15;5.80;78.80
29551;DHT22;16488;52.396;10.696;2023-02-08T11:36:00;6.40;79.60
29551;DHT22;16488;52.396;10.696;2023-02-08T11:38:27;6.90;76.80
29551;DHT22;16488;52.396;10.696;2023-02-08T11:40:57;6.60;75.80
29551;DHT22;16488;52.396;10.696;2023-02-08T11:43:29;6.70;75.90
29551;DHT22;16488;52.396;10.696;2023-02-08T11:45:56;7.20;75.40
29551;DHT22;16488;52.396;10.696;2023-02-08T11:48:39;7.10;72.90
29551;DHT22;16488;52.396;10.696;2023-02-08T11:51:07;6.60;76.40
29551;DHT22;16488;52.396;10.696;2023-02-08T11:53:37;6.50;77.50
29551;DHT22;16488;52.396;10.696;2023-02-08T11:56:25;6.90;77.70
29551;DHT22;16488;52.396;10.696;2023-02-08T11:59:00;6.40;75.90
29551;DHT22;16488;52.396;10.696;2023-02-08T12:01:32;5.90;77.20
29551;DHT22;16488;52.396;10.696;2023-02-08T12:04:01;6.30;79.70
29551;DHT22;16488;52.396;10.696;2023-02-08T12:09:49;5.70;80.70
29551;DHT22;16488;52.396;10.696;2023-02-08T12:12:38;5.20;80.90
29551;DHT22;16488;52.396;10.696;2023-02-08T12:20:38;7.30;78.30
29551;DHT22;16488;52.396;10.696;2023-02-08T12:26:46;6.50;75.10
29551;DHT22;16488;52.396;10.696;2023-02-08T12:29:39;5.90;78.30
29551;DHT22;16488;52.396;10.696;2023-02-08T12:43:57;6.00;85.50
29551;DHT22;16488;52.396;10.696;2023-02-08T12:57:43;10.40;69.70
29551;DHT22;16488;52.396;10.696;2023-02-08T13:02:54;11.40;64.50
29551;DHT22;16488;52.396;10.696;2023-02-08T13:05:24;11.60;61.80
29551;DHT22;16488;52.396;10.696;2023-02-08T13:11:00;10.50;60.50
29551;DHT22;16488;52.396;10.696;2023-02-08T13:13:32;10.60;63.60
29551;DHT22;16488;52.396;10.696;2023-02-08T13:16:16;10.50;60.20
29551;DHT22;16488;52.396;10.696;2023-02-08T13:21:52;11.90;57.60
29551;DHT22;16488;52.396;10.696;2023-02-08T13:24:30;10.60;58.60
29551;DHT22;16488;52.396;10.696;2023-02-08T13:26:57;10.90;59.10
29551;DHT22;16488;52.396;10.696;2023-02-08T13:29:23;9.80;60.80
29551;DHT22;16488;52.396;10.696;2023-02-08T13:31:57;10.00;62.50
29551;DHT22;16488;52.396;10.696;2023-02-08T13:34:28;10.30;63.40
29551;DHT22;16488;52.396;10.696;2023-02-08T13:37:03;10.20;62.30
29551;DHT22;16488;52.396;10.696;2023-02-08T13:39:34;10.60;61.50
29551;DHT22;16488;52.396;10.696;2023-02-08T13:42:03;11.70;63.60
29551;DHT22;16488;52.396;10.696;2023-02-08T13:44:39;12.40;62.00
29551;DHT22;16488;52.396;10.696;2023-02-08T13:47:06;12.30;63.90
29551;DHT22;16488;52.396;10.696;2023-02-08T13:49:55;13.00;62.80
29551;DHT22;16488;52.396;10.696;2023-02-08T13:58:01;10.80;66.60
29551;DHT22;16488;52.396;10.696;2023-02-08T14:05:49;10.30;68.50
29551;DHT22;16488;52.396;10.696;2023-02-08T14:11:28;10.90;66.30
29551;DHT22;16488;52.396;10.696;2023-02-08T14:14:05;11.40;64.60
29551;DHT22;16488;52.396;10.696;2023-02-08T14:16:35;11.60;64.40
29551;DHT22;16488;52.396;10.696;2023-02-08T14:21:49;10.70;64.90
29551;DHT22;16488;52.396;10.696;2023-02-08T14:24:27;10.90;66.20
29551;DHT22;16488;52.396;10.696;2023-02-08T14:27:15;11.10;64.80
29551;DHT22;16488;52.396;10.696;2023-02-08T14:29:42;12.00;64.30
29551;DHT22;16488;52.396;10.696;2023-02-08T14:32:08;11.70;62.00
29551;DHT22;16488;52.396;10.696;2023-02-08T14:34:35;12.10;62.20
29551;DHT22;16488;52.396;10.696;2023-02-08T14:39:42;10.60;61.70
29551;DHT22;16488;52.396;10.696;2023-02-08T14:42:11;9.90;64.50
29551;DHT22;16488;52.396;10.696;2023-02-08T14:50:29;7.90;69.10
29551;DHT22;16488;52.396;10.696;2023-02-08T14:53:03;8.80;69.10
29551;DHT22;16488;52.396;10.696;2023-02-08T14:55:39;7.80;69.30
29551;DHT22;16488;52.396;10.696;2023-02-08T14:58:11;7.70;74.10
29551;DHT22;16488;52.396;10.696;2023-02-08T15:00:39;8.50;73.00
29551;DHT22;16488;52.396;10.696;2023-02-08T15:03:13;8.10;72.70
29551;DHT22;16488;52.396;10.696;2023-02-08T15:08:53;5.40;80.50
29551;DHT22;16488;52.396;10.696;2023-02-08T15:11:22;4.40;85.50
29551;DHT22;16488;52.396;10.696;2023-02-08T15:13:49;3.70;89.50
29551;DHT22;16488;52.396;10.696;2023-02-08T15:16:17;3.70;91.30
29551;DHT22;16488;52.396;10.696;2023-02-08T15:18:45;3.60;91.90
29551;DHT22;16488;52.396;10.696;2023-02-08T15:21:17;3.60;92.00
29551;DHT22;16488;52.396;10.696;2023-02-08T15:24:01;3.60;92.80
29551;DHT22;16488;52.396;10.696;2023-02-08T15:26:26;3.40;92.60
29551;DHT22;16488;52.396;10.696;2023-02-08T15:28:53;2.90;92.50
29551;DHT22;16488;52.396;10.696;2023-02-08T15:31:23;2.80;92.90
29551;DHT22;16488;52.396;10.696;2023-02-08T15:33:52;2.80;92.90
29551;DHT22;16488;52.396;10.696;2023-02-08T15:36:30;2.70;93.00
29551;DHT22;16488;52.396;10.696;2023-02-08T15:38:58;2.60;93.30
29551;DHT22;16488;52.396;10.696;2023-02-08T15:41:31;2.70;93.50
29551;DHT22;16488;52.396;10.696;2023-02-08T15:44:24;2.50;93.60
29551;DHT22;16488;52.396;10.696;2023-02-08T15:46:52;2.30;94.00
29551;DHT22;16488;52.396;10.696;2023-02-08T15:49:31;2.20;94.90
29551;DHT22;16488;52.396;10.696;2023-02-08T15:51:59;2.20;95.10
29551;DHT22;16488;52.396;10.696;2023-02-08T15:54:25;1.80;95.70
29551;DHT22;16488;52.396;10.696;2023-02-08T15:56:55;1.80;96.50
29551;DHT22;16488;52.396;10.696;2023-02-08T15:59:27;1.80;96.80
29551;DHT22;16488;52.396;10.696;2023-02-08T16:01:56;1.80;97.80
29551;DHT22;16488;52.396;10.696;2023-02-08T16:04:23;1.70;97.70
29551;DHT22;16488;52.396;10.696;2023-02-08T16:06:51;1.60;98.30
29551;DHT22;16488;52.396;10.696;2023-02-08T16:09:22;1.40;98.90
29551;DHT22;16488;52.396;10.696;2023-02-08T16:11:49;1.20;99.80
29551;DHT22;16488;52.396;10.696;2023-02-08T16:14:18;1.10;99.90
29551;DHT22;16488;52.396;10.696;2023-02-08T16:16:50;1.00;99.90
29551;DHT22;16488;52.396;10.696;2023-02-08T16:19:30;0.90;99.90
29551;DHT22;16488;52.396;10.696;2023-02-08T16:22:18;0.90;99.90
29551;DHT22;16488;52.396;10.696;2023-02-08T16:24:47;0.80;99.90
29551;DHT22;16488;52.396;10.696;2023-02-08T16:27:25;0.60;99.90
29551;DHT22;16488;52.396;10.696;2023-02-08T16:29:52;0.50;99.90
29551;DHT22;16488;52.396;10.696;2023-02-08T16:34:46;0.30;99.90
29551;DHT22;16488;52.396;10.696;2023-02-08T16:37:25;0.20;99.90
29551;DHT22;16488;52.396;10.696;2023-02-08T16:48:18;0.00;99.90
29551;DHT22;16488;52.396;10.696;2023-02-08T16:50:25;-0.10;99.90
29551;DHT22;16488;52.396;10.696;2023-02-08T16:52:59;-0.10;99.90
29551;DHT22;16488;52.396;10.696;2023-02-08T16:55:27;-0.10;99.90
29551;DHT22;16488;52.396;10.696;2023-02-08T16:57:56;-0.10;99.90
29551;DHT22;16488;52.396;10.696;2023-02-08T17:00:25;-0.20;99.90
29551;DHT22;16488;52.396;10.696;2023-02-08T17:02:51;-0.20;99.90
29551;DHT22;16488;52.396;10.696;2023-02-08T17:05:18;-0.20;99.90
29551;DHT22;16488;52.396;10.696;2023-02-08T17:07:44;-0.30;99.90
29551;DHT22;16488;52.396;10.696;2023-02-08T17:10:14;-0.40;99.90
29551;DHT22;16488;52.396;10.696;2023-02-08T17:12:40;-0.40;99.90
29551;DHT22;16488;52.396;10.696;2023-02-08T17:15:05;-0.50;99.90
29551;DHT22;16488;52.396;10.696;2023-02-08T17:17:31;-0.60;99.90
29551;DHT22;16488;52.396;10.696;2023-02-08T17:19:56;-0.60;99.90
29551;DHT22;16488;52.396;10.696;2023-02-08T17:22:22;-0.50;99.90
29551;DHT22;16488;52.396;10.696;2023-02-08T17:24:47;-0.50;99.90
29551;DHT22;16488;52.396;10.696;2023-02-08T17:27:13;-0.50;99.90
29551;DHT22;16488;52.396;10.696;2023-02-08T17:29:39;-0.50;99.90
29551;DHT22;16488;52.396;10.696;2023-02-08T17:32:06;-0.60;99.90
29551;DHT22;16488;52.396;10.696;2023-02-08T17:34:31;-0.60;99.90
29551;DHT22;16488;52.396;10.696;2023-02-08T17:36:57;-0.60;99.90
29551;DHT22;16488;52.396;10.696;2023-02-08T17:39:22;-0.60;99.90
29551;DHT22;16488;52.396;10.696;2023-02-08T17:41:48;-0.60;99.90
29551;DHT22;16488;52.396;10.696;2023-02-08T17:44:14;-0.60;99.90
29551;DHT22;16488;52.396;10.696;2023-02-08T17:46:39;-0.50;99.90
29551;DHT22;16488;52.396;10.696;2023-02-08T17:49:05;-0.50;99.90
29551;DHT22;16488;52.396;10.696;2023-02-08T17:51:31;-0.60;99.90
29551;DHT22;16488;52.396;10.696;2023-02-08T17:53:57;-0.60;99.90
29551;DHT22;16488;52.396;10.696;2023-02-08T17:56:24;-0.60;99.90
29551;DHT22;16488;52.396;10.696;2023-02-08T17:58:51;-0.60;99.90
29551;DHT22;16488;52.396;10.696;2023-02-08T18:01:23;-0.60;99.90